Catàleg de serveis del Meteocat
Campanya meteocatpedra

Dades de l'estació automàtica Vilanova de Segrià

?
?
Resum diari 21:30 TU
Dades diàries de l'estació meteorològica
Temperatura mitjana 8.3 °C
Temperatura màxima 13.6 °C 14:14 TU
Temperatura mínima 3.4 °C 1:34 TU
Humitat relativa mitjana 83%
Precipitació acumulada 0.8 mm
Ratxa màxima del vent (2 m) 25.9 km/h - 289º 18:57 TU
Irradiació solar global 7.4 MJ/m2

El tram horari està expressat en Temps Universal (TU). Cal sumar una hora en horari d'hivern i dues en horari d'estiu per passar a l'hora oficial.

Vilanova de Segrià

Metadades estació meteorol´gica
Municipi Vilanova de Segrià
Comarca Segrià
Altitud 222 m
Data alta 17.09.1997
Estat actual Operativa
Dades de període
Període
TU
TM
°C
TX
°C
TN
°C
HRM
%
PPT
mm
VVM (2 m)
km/h
DVM (2 m)
graus
VVX (2 m)
km/h
RS
W/m2
00:00 - 00:30 6.4 7.5 5.8 88 0.0 2.2 120 9.0 0
00:30 - 01:00 5.4 6.4 4.3 91 0.0 1.1 252 3.6 0
01:00 - 01:30 3.9 4.4 3.6 97 0.0 1.1 293 4.3 0
01:30 - 02:00 3.7 4.0 3.4 99 0.0 0.7 315 5.0 0
02:00 - 02:30 4.3 4.8 3.7 99 0.0 2.2 314 5.4 0
02:30 - 03:00 4.5 4.7 3.7 98 0.0 1.1 28 4.0 0
03:00 - 03:30 4.2 4.5 3.8 99 0.0 0.7 290 3.6 0
03:30 - 04:00 4.5 4.6 4.5 98 0.0 0.4 296 2.2 0
04:00 - 04:30 4.6 4.8 4.5 98 0.0 0.0 334 2.5 0
04:30 - 05:00 5.0 5.2 4.8 97 0.0 0.0 26 3.2 0
05:00 - 05:30 5.5 5.7 5.2 94 0.0 0.7 15 3.2 0
05:30 - 06:00 5.7 5.7 5.6 95 0.1 1.4 329 4.0 0
06:00 - 06:30 5.7 5.8 5.6 97 0.0 1.4 323 4.3 0
06:30 - 07:00 5.8 5.9 5.8 97 0.1 1.8 325 3.6 0
07:00 - 07:30 6.0 6.1 5.9 97 0.4 0.4 329 2.5 7
07:30 - 08:00 6.2 6.7 6.1 98 0.1 1.1 227 4.0 41
08:00 - 08:30 6.8 6.9 6.7 95 0.1 1.1 316 3.6 36
08:30 - 09:00 7.0 7.3 6.9 94 0.0 1.1 290 3.6 49
09:00 - 09:30 7.4 7.6 7.3 93 0.0 1.4 265 3.2 45
09:30 - 10:00 7.7 8.0 7.5 93 0.0 2.2 187 7.2 95
10:00 - 10:30 8.5 8.9 8.0 86 0.0 2.9 237 6.5 199
10:30 - 11:00 9.2 10.1 8.8 83 0.0 3.6 249 8.3 343
11:00 - 11:30 10.8 11.6 10.2 79 0.0 4.0 272 10.4 480
11:30 - 12:00 11.0 11.3 10.7 80 0.0 4.7 256 9.4 243
12:00 - 12:30 11.5 12.3 10.9 78 0.0 4.7 273 10.8 352
12:30 - 13:00 12.3 12.8 11.6 73 0.0 5.0 252 10.4 497
13:00 - 13:30 12.7 13.1 12.3 71 0.0 6.1 231 11.9 457
13:30 - 14:00 12.8 13.0 12.7 72 0.0 7.6 238 13.3 401
14:00 - 14:30 13.3 13.6 12.9 71 0.0 6.1 213 12.6 335
14:30 - 15:00 13.4 13.5 13.3 72 0.0 6.1 247 12.2 260
15:00 - 15:30 13.2 13.4 13.0 76 0.0 5.0 223 10.1 176
15:30 - 16:00 13.0 13.4 12.8 78 0.0 2.5 205 5.8 90
16:00 - 16:30 12.4 12.8 12.0 71 0.0 3.6 276 11.5 29
16:30 - 17:00 11.6 12.3 11.0 58 0.0 5.0 272 13.0 1
17:00 - 17:30 11.5 11.6 11.3 60 0.0 10.8 306 25.2 0
17:30 - 18:00 11.1 11.4 10.9 60 0.0 9.0 296 19.4 0
18:00 - 18:30 10.5 10.8 10.1 61 0.0 7.9 303 15.5 0
18:30 - 19:00 10.3 10.5 10.0 61 0.0 11.2 301 25.9 0
19:00 - 19:30 10.0 10.3 9.8 62 0.0 13.3 315 24.5 0
19:30 - 20:00 8.6 9.8 7.3 68 0.0 3.2 315 16.6 0
20:00 - 20:30 8.1 8.6 7.3 69 0.0 4.0 323 10.4 0
20:30 - 21:00 7.3 7.7 6.7 72 0.0 2.5 179 6.8 0
21:00 - 21:30 6.6 7.6 5.4 78 0.0 1.4 211 6.1 0
21:30 - 22:00 5.3 5.6 4.7 87 0.0 1.4 128 8.3 0

Les dades en taronja només han passat un control de qualitat automàtic. Resta pendent la seva validació definitiva.